Time;durP1;ratioP1;P1;durP2;ratioP2;P2;SDS_P1;SDS_P2;PMS_P1;PMS_P2;Temp;Humidity;BMP_temperature;BMP_pressure;BME280_temperature;BME280_humidity;BME280_pressure;Samples;Min_cycle;Max_cycle;Signal;HPM_P1;HPM_P2
2022/07/17 00:01:36;;;;;;;;;;;;;;;16.12;59.32;100883.04;1472349;88;20416;-86
2022/07/17 00:04:02;;;;;;;;;;;;;;;16.11;59.14;100886.73;1477596;88;20289;-87
2022/07/17 00:06:28;;;;;;;;;;;;;;;16.11;59.33;100887.20;1478488;88;20290;-88
2022/07/17 00:08:56;;;;;;;;;;;;;;;16.08;59.33;100881.70;1481706;88;20289;-87
2022/07/17 00:11:26;;;;;;;;;;;;;;;16.08;59.34;100885.70;1480745;88;20870;-89
2022/07/17 00:13:57;;;;;;;;;;;;;;;16.03;59.60;100884.08;1480913;88;20371;-88
2022/07/17 00:16:23;;;;;;;;;;;;;;;16.04;59.54;100892.92;1482559;88;20356;-89
2022/07/17 00:18:50;;;;;;;;;;;;;;;16.00;59.65;100890.59;1478601;88;20289;-87
2022/07/17 00:21:16;;;;;;;;;;;;;;;15.99;60.00;100888.91;1493834;86;21252;-87
2022/07/17 00:23:43;;;;;;;;;;;;;;;15.96;59.79;100894.59;1491411;86;20282;-89
2022/07/17 00:26:09;;;;;;;;;;;;;;;15.90;60.21;100889.11;1498249;86;20317;-90
2022/07/17 00:28:35;;;;;;;;;;;;;;;15.86;61.01;100908.65;1475540;87;20277;-89
2022/07/17 00:31:01;;;;;;;;;;;;;;;15.84;61.02;100907.15;1488835;87;20335;-87
2022/07/17 00:33:34;;;;;;;;;;;;;;;15.76;61.71;100904.81;1490621;87;20861;-89
2022/07/17 00:36:00;;;;;;;;;;;;;;;15.80;61.38;100905.33;1488900;87;20401;-87
2022/07/17 00:38:28;;;;;;;;;;;;;;;15.75;61.83;100905.00;1491598;87;20275;-89
2022/07/17 00:40:57;;;;;;;;;;;;;;;15.72;62.15;100909.34;1495338;87;20356;-89
2022/07/17 00:43:26;;;;;;;;;;;;;;;15.69;62.37;100915.84;1491027;87;21333;-90
2022/07/17 00:45:58;;;;;;;;;;;;;;;15.67;62.61;100916.48;1504365;86;21447;-88
2022/07/17 00:48:26;;;;;;;;;;;;;;;15.63;62.71;100917.83;1508585;86;20295;-87
2022/07/17 00:50:53;;;;;;;;;;;;;;;15.53;63.69;100919.83;1511036;86;20301;-89
2022/07/17 00:53:19;;;;;;;;;;;;;;;15.53;63.45;100922.49;1484472;86;20368;-88
2022/07/17 00:55:48;;;;;;;;;;;;;;;15.47;63.98;100919.16;1506273;86;20413;-89
2022/07/17 00:58:19;;;;;;;;;;;;;;;15.40;64.53;100928.34;1505637;86;20302;-89
2022/07/17 01:00:49;;;;;;;;;;;;;;;15.33;64.73;100924.66;1506022;86;20407;-88
2022/07/17 01:03:18;;;;;;;;;;;;;;;15.34;64.76;100927.17;1489248;86;20356;-92
2022/07/17 01:05:44;;;;;;;;;;;;;;;15.33;64.78;100926.86;1500945;86;20421;-90
2022/07/17 01:08:11;;;;;;;;;;;;;;;15.27;64.84;100921.33;1498288;86;20265;-91
2022/07/17 01:10:40;;;;;;;;;;;;;;;15.21;65.30;100921.50;1494841;86;20372;-91
2022/07/17 01:13:07;;;;;;;;;;;;;;;15.17;64.90;100917.50;1490904;86;20377;-91
2022/07/17 01:15:38;;;;;;;;;;;;;;;15.11;65.15;100918.17;1508289;86;20384;-90
2022/07/17 01:18:07;;;;;;;;;;;;;;;15.10;65.30;100916.48;1492904;86;20392;-91
2022/07/17 01:20:33;;;;;;;;;;;;;;;15.07;66.41;100916.81;1486059;86;20315;-91
2022/07/17 01:22:59;;;;;;;;;;;;;;;15.06;65.08;100915.16;1501941;86;20399;-91
2022/07/17 01:25:25;;;;;;;;;;;;;;;15.00;66.71;100917.16;1490652;86;20288;-91
2022/07/17 01:27:53;;;;;;;;;;;;;;;15.04;65.88;100917.98;1504629;86;21080;-88
2022/07/17 01:30:21;;;;;;;;;;;;;;;15.05;65.64;100916.17;1506469;86;20358;-87
2022/07/17 01:32:47;;;;;;;;;;;;;;;15.05;65.89;100918.84;1508819;86;20272;-88
2022/07/17 01:35:14;;;;;;;;;;;;;;;15.03;65.92;100922.98;1491570;86;20294;-87
2022/07/17 01:37:41;;;;;;;;;;;;;;;15.00;66.29;100923.81;1486969;86;20355;-87
2022/07/17 01:40:09;;;;;;;;;;;;;;;14.94;66.84;100928.48;1495634;86;20378;-88
2022/07/17 01:42:44;;;;;;;;;;;;;;;14.87;66.68;100929.14;1487179;86;20883;-88
2022/07/17 01:45:11;;;;;;;;;;;;;;;14.82;67.04;100930.62;1494396;86;20967;-89
2022/07/17 01:47:37;;;;;;;;;;;;;;;14.78;67.32;100927.42;1489191;86;20310;-88
2022/07/17 01:50:04;;;;;;;;;;;;;;;14.73;67.35;100932.91;1495720;86;20384;-90
2022/07/17 01:52:30;;;;;;;;;;;;;;;14.71;66.71;100934.92;1496664;86;20413;-89
2022/07/17 01:54:56;;;;;;;;;;;;;;;14.67;67.18;100937.05;1504224;86;20380;-90
2022/07/17 01:57:23;;;;;;;;;;;;;;;14.59;66.95;100931.22;1489693;86;20244;-90
2022/07/17 01:59:49;;;;;;;;;;;;;;;14.53;68.24;100935.00;1497619;86;20376;-89
2022/07/17 02:02:15;;;;;;;;;;;;;;;14.45;68.74;100939.78;1506117;86;20317;-88
2022/07/17 02:04:41;;;;;;;;;;;;;;;14.41;68.42;100947.27;1503290;86;20392;-89
2022/07/17 02:07:08;;;;;;;;;;;;;;;14.35;68.80;100945.22;1506174;86;20266;-89
2022/07/17 02:09:35;;;;;;;;;;;;;;;14.35;68.44;100947.88;1493746;86;20339;-88
2022/07/17 02:12:00;;;;;;;;;;;;;;;14.33;68.70;100942.41;1478946;86;20288;-88
2022/07/17 02:14:27;;;;;;;;;;;;;;;14.32;68.47;100948.20;1489171;86;20280;-87
2022/07/17 02:16:53;;;;;;;;;;;;;;;14.31;69.28;100951.87;1498794;86;20272;-87
2022/07/17 02:19:21;;;;;;;;;;;;;;;14.32;68.65;100957.52;1500950;86;20295;-87
2022/07/17 02:21:47;;;;;;;;;;;;;;;14.32;68.59;100958.85;1509113;86;20361;-87
2022/07/17 02:24:14;;;;;;;;;;;;;;;14.30;69.38;100964.86;1500463;86;20287;-86
2022/07/17 02:26:40;;;;;;;;;;;;;;;14.27;69.52;100966.50;1494392;86;20381;-87
2022/07/17 02:29:06;;;;;;;;;;;;;;;14.24;68.71;100964.12;1503783;86;20353;-87
2022/07/17 02:31:33;;;;;;;;;;;;;;;14.18;69.47;100966.09;1489535;86;20265;-87
2022/07/17 02:34:05;;;;;;;;;;;;;;;14.05;70.60;100971.03;1503674;86;20406;-87
2022/07/17 02:36:36;;;;;;;;;;;;;;;13.97;70.77;100966.48;1488494;86;20312;-86
2022/07/17 02:39:02;;;;;;;;;;;;;;;13.89;71.00;100968.58;1500510;86;20317;-88
2022/07/17 02:41:28;;;;;;;;;;;;;;;13.80;71.61;100966.86;1502680;86;20380;-88
2022/07/17 02:43:54;;;;;;;;;;;;;;;13.74;71.24;100962.16;1492928;86;21187;-89
2022/07/17 02:46:20;;;;;;;;;;;;;;;13.72;71.11;100965.47;1498304;86;20287;-88
2022/07/17 02:48:46;;;;;;;;;;;;;;;13.64;72.33;100966.76;1502351;86;20837;-94
2022/07/17 02:51:12;;;;;;;;;;;;;;;13.63;71.85;100978.37;1499853;86;20296;-91
2022/07/17 02:53:38;;;;;;;;;;;;;;;13.61;72.30;100981.20;1486697;86;20325;-91
2022/07/17 02:56:05;;;;;;;;;;;;;;;13.60;71.48;100980.00;1474078;87;20385;-91
2022/07/17 02:58:35;;;;;;;;;;;;;;;13.60;72.27;100984.00;1475924;87;20370;-90
2022/07/17 03:01:01;;;;;;;;;;;;;;;13.59;71.84;100987.16;1490203;87;20391;-91
2022/07/17 03:03:27;;;;;;;;;;;;;;;13.56;72.05;100990.13;1476943;87;20392;-91
2022/07/17 03:05:53;;;;;;;;;;;;;;;13.58;72.32;100989.95;1481190;87;20311;-90
2022/07/17 03:08:19;;;;;;;;;;;;;;;13.61;71.46;100990.51;1483311;87;20347;-90
2022/07/17 03:10:47;;;;;;;;;;;;;;;13.63;71.87;100998.31;1499638;87;20297;-90
2022/07/17 03:13:13;;;;;;;;;;;;;;;13.66;71.14;100992.69;1478899;87;20919;-92
2022/07/17 03:15:39;;;;;;;;;;;;;;;13.69;70.94;100997.70;1481678;87;20368;-92
2022/07/17 03:18:06;;;;;;;;;;;;;;;13.72;70.94;100998.72;1487423;87;20327;-92
2022/07/17 03:20:32;;;;;;;;;;;;;;;13.73;71.51;101002.56;1474004;87;20267;-92
2022/07/17 03:22:58;;;;;;;;;;;;;;;13.75;71.17;101000.59;1477555;87;20282;-92
2022/07/17 03:25:24;;;;;;;;;;;;;;;13.81;70.97;101012.45;1491850;87;20295;-92
2022/07/17 03:27:50;;;;;;;;;;;;;;;13.77;71.07;101003.92;1477993;87;20266;-90
2022/07/17 03:30:19;;;;;;;;;;;;;;;13.78;70.85;101010.06;1484073;87;20280;-90
2022/07/17 03:32:45;;;;;;;;;;;;;;;13.76;70.93;101014.73;1486124;87;20333;-89
2022/07/17 03:35:12;;;;;;;;;;;;;;;13.75;70.82;101013.03;1489411;87;20281;-89
2022/07/17 03:37:38;;;;;;;;;;;;;;;13.73;71.27;101016.37;1485593;87;20363;-89
2022/07/17 03:40:07;;;;;;;;;;;;;;;13.69;71.56;101017.14;1484337;87;20288;-90
2022/07/17 03:42:33;;;;;;;;;;;;;;;13.70;71.18;101014.02;1484784;87;20288;-90
2022/07/17 03:44:59;;;;;;;;;;;;;;;13.73;70.94;101027.84;1485511;87;20340;-90
2022/07/17 03:47:27;;;;;;;;;;;;;;;13.74;70.88;101019.36;1492437;87;20387;-89
2022/07/17 03:49:53;;;;;;;;;;;;;;;13.74;71.47;101026.01;1476600;88;20281;-89
2022/07/17 03:52:20;;;;;;;;;;;;;;;13.74;71.92;101027.34;1475960;87;20421;-89
2022/07/17 03:54:46;;;;;;;;;;;;;;;13.77;71.54;101025.70;1479770;87;20358;-89
2022/07/17 03:57:12;;;;;;;;;;;;;;;13.79;71.18;101025.06;1493213;87;20281;-89
2022/07/17 03:59:40;;;;;;;;;;;;;;;13.81;71.21;101028.88;1495043;87;20287;-92
2022/07/17 04:02:05;;;;;;;;;;;;;;;13.83;71.06;101028.23;1494326;87;21444;-90
2022/07/17 04:04:32;;;;;;;;;;;;;;;13.88;71.20;101033.44;1479885;87;20295;-87
2022/07/17 04:06:59;;;;;;;;;;;;;;;13.91;71.07;101035.79;1489416;87;20302;-89
2022/07/17 04:09:25;;;;;;;;;;;;;;;13.98;70.68;101025.35;1491770;87;21223;-89
2022/07/17 04:11:51;;;;;;;;;;;;;;;14.08;70.54;101034.59;1493855;87;20354;-88
2022/07/17 04:14:19;;;;;;;;;;;;;;;14.13;70.01;101034.47;1491988;87;20258;-89
2022/07/17 04:16:45;;;;;;;;;;;;;;;14.17;70.48;101037.64;1490584;87;20287;-89
2022/07/17 04:19:16;;;;;;;;;;;;;;;14.25;69.63;101038.20;1493688;87;20280;-88
2022/07/17 04:21:44;;;;;;;;;;;;;;;14.33;69.60;101035.09;1477606;87;20905;-88
2022/07/17 04:24:12;;;;;;;;;;;;;;;14.40;69.58;101047.27;1495062;87;20303;-88
2022/07/17 04:26:44;;;;;;;;;;;;;;;14.47;68.97;101047.47;1497657;87;20317;-89
2022/07/17 04:29:10;;;;;;;;;;;;;;;14.54;68.33;101052.55;1480849;87;20274;-88
2022/07/17 04:31:36;;;;;;;;;;;;;;;14.62;68.02;101055.27;1477286;87;20273;-88
2022/07/17 04:34:02;;;;;;;;;;;;;;;14.68;67.37;101055.95;1481552;87;20288;-88
2022/07/17 04:36:29;;;;;;;;;;;;;;;14.76;67.04;101052.00;1495803;87;20280;-88
2022/07/17 04:38:55;;;;;;;;;;;;;;;14.87;66.47;101051.72;1471719;88;20361;-89
2022/07/17 04:41:25;;;;;;;;;;;;;;;15.03;66.17;101056.77;1493419;87;20310;-88
2022/07/17 04:43:52;;;;;;;;;;;;;;;15.16;65.02;101058.45;1492944;87;20393;-87
2022/07/17 04:46:18;;;;;;;;;;;;;;;15.26;64.36;101060.50;1486437;87;20281;-86
2022/07/17 04:48:44;;;;;;;;;;;;;;;15.34;63.61;101063.19;1485871;87;20340;-86
2022/07/17 04:51:11;;;;;;;;;;;;;;;15.43;63.49;101068.55;1493510;87;20370;-87
2022/07/17 04:53:37;;;;;;;;;;;;;;;15.48;63.11;101066.23;1486001;87;20287;-87
2022/07/17 04:56:10;;;;;;;;;;;;;;;15.56;63.09;101063.55;1484428;87;20303;-87
2022/07/17 04:58:37;;;;;;;;;;;;;;;15.61;62.55;101069.23;1476884;87;20310;-87
2022/07/17 05:01:03;;;;;;;;;;;;;;;15.66;62.19;101069.58;1492846;86;20399;-87
2022/07/17 05:03:30;;;;;;;;;;;;;;;15.72;62.97;101073.45;1503379;86;20257;-88
2022/07/17 05:05:56;;;;;;;;;;;;;;;15.77;61.94;101073.80;1494008;86;20846;-87
2022/07/17 05:08:21;;;;;;;;;;;;;;;15.87;62.14;101071.78;1497353;86;20316;-87
2022/07/17 05:10:47;;;;;;;;;;;;;;;15.94;61.08;101073.28;1487135;87;20265;-88
2022/07/17 05:13:13;;;;;;;;;;;;;;;15.99;61.25;101073.62;1481068;87;20288;-87
2022/07/17 05:15:39;;;;;;;;;;;;;;;16.05;60.26;101074.28;1489319;87;20266;-87
2022/07/17 05:18:05;;;;;;;;;;;;;;;16.14;60.05;101075.97;1493013;87;20274;-87
2022/07/17 05:20:31;;;;;;;;;;;;;;;16.24;59.83;101081.95;1481547;87;20363;-85
2022/07/17 05:22:57;;;;;;;;;;;;;;;16.37;60.04;101088.60;1483122;87;20287;-85
2022/07/17 05:25:25;;;;;;;;;;;;;;;16.49;58.85;101091.78;1496496;87;20318;-85
2022/07/17 05:27:51;;;;;;;;;;;;;;;16.58;58.44;101090.25;1496353;87;20362;-84
2022/07/17 05:30:18;;;;;;;;;;;;;;;16.57;57.38;101094.41;1489105;87;20281;-85
2022/07/17 05:32:50;;;;;;;;;;;;;;;16.71;57.97;101096.38;1494644;87;20395;-84
2022/07/17 05:35:16;;;;;;;;;;;;;;;16.82;57.52;101097.38;1485916;87;20388;-84
2022/07/17 05:37:42;;;;;;;;;;;;;;;16.96;57.38;101096.34;1485468;87;20392;-84
2022/07/17 05:40:08;;;;;;;;;;;;;;;17.04;57.28;101097.15;1483157;87;20838;-84
2022/07/17 05:42:34;;;;;;;;;;;;;;;17.11;55.98;101103.45;1479316;87;20294;-84
2022/07/17 05:45:00;;;;;;;;;;;;;;;17.22;56.26;101097.41;1496745;86;21065;-84
2022/07/17 05:47:28;;;;;;;;;;;;;;;17.30;55.68;101100.04;1501870;86;20272;-85
2022/07/17 05:49:55;;;;;;;;;;;;;;;17.44;53.71;101099.30;1490276;86;20281;-84
2022/07/17 05:52:20;;;;;;;;;;;;;;;17.51;54.15;101105.59;1505804;86;20857;-87
2022/07/17 05:54:46;;;;;;;;;;;;;;;17.68;54.09;101110.34;1498915;86;20310;-88
2022/07/17 05:57:13;;;;;;;;;;;;;;;17.81;54.33;101108.46;1493090;86;20321;-87
2022/07/17 05:59:39;;;;;;;;;;;;;;;17.97;52.99;101110.99;1486104;86;20361;-87
2022/07/17 06:02:06;;;;;;;;;;;;;;;18.09;53.27;101114.59;1504297;86;20295;-86
2022/07/17 06:04:33;;;;;;;;;;;;;;;18.18;50.92;101114.36;1505806;86;20332;-87
2022/07/17 06:06:59;;;;;;;;;;;;;;;18.26;49.86;101120.13;1492459;86;20353;-85
2022/07/17 06:09:25;;;;;;;;;;;;;;;18.29;49.28;101121.11;1508921;86;20258;-85
2022/07/17 06:11:51;;;;;;;;;;;;;;;18.27;49.65;101119.14;1509922;86;20276;-86
2022/07/17 06:14:17;;;;;;;;;;;;;;;18.36;50.21;101120.73;1495023;85;20322;-85
2022/07/17 06:16:43;;;;;;;;;;;;;;;18.46;48.57;101121.28;1522020;85;20375;-87
2022/07/17 06:19:11;;;;;;;;;;;;;;;18.52;48.06;101129.09;1501944;86;20273;-86
2022/07/17 06:21:37;;;;;;;;;;;;;;;18.62;48.22;101136.89;1498948;86;20398;-86
2022/07/17 06:24:03;;;;;;;;;;;;;;;18.70;47.42;101128.27;1493253;86;20272;-85
2022/07/17 06:26:29;;;;;;;;;;;;;;;18.77;47.46;101141.78;1505639;86;20357;-85
2022/07/17 06:29:00;;;;;;;;;;;;;;;18.90;46.94;101141.98;1507350;86;20287;-87
2022/07/17 06:31:26;;;;;;;;;;;;;;;19.04;47.78;101139.47;1503847;86;20421;-89
2022/07/17 06:33:52;;;;;;;;;;;;;;;19.15;46.92;101146.53;1495044;86;20325;-85
2022/07/17 06:36:18;;;;;;;;;;;;;;;19.24;45.93;101151.80;1503871;86;20295;-87
2022/07/17 06:38:46;;;;;;;;;;;;;;;19.30;44.98;101159.94;1503455;86;20387;-86
2022/07/17 06:41:12;;;;;;;;;;;;;;;19.31;44.49;101161.62;1493913;86;20415;-82
2022/07/17 06:43:38;;;;;;;;;;;;;;;19.35;45.58;101162.06;1505024;86;20504;-82
2022/07/17 06:46:04;;;;;;;;;;;;;;;19.45;45.17;101165.79;1498689;86;20295;-82
2022/07/17 06:48:30;;;;;;;;;;;;;;;19.52;45.29;101166.72;1484671;86;20985;-81
2022/07/17 06:50:56;;;;;;;;;;;;;;;19.56;45.23;101167.51;1488301;86;20306;-81
2022/07/17 06:53:22;;;;;;;;;;;;;;;19.66;45.25;101167.74;1496445;86;20302;-81
2022/07/17 06:55:51;;;;;;;;;;;;;;;19.68;45.36;101160.30;1486895;86;20287;-82
2022/07/17 06:58:17;;;;;;;;;;;;;;;19.78;45.75;101160.33;1485424;86;20963;-81
2022/07/17 07:00:43;;;;;;;;;;;;;;;19.69;43.14;101180.27;1488100;85;20295;-81
2022/07/17 07:03:09;;;;;;;;;;;;;;;19.81;42.87;101166.66;1501222;86;20522;-82
2022/07/17 07:05:37;;;;;;;;;;;;;;;19.93;43.35;101179.08;1481529;86;20303;-81
2022/07/17 07:08:03;;;;;;;;;;;;;;;19.98;43.40;101169.94;1485471;86;21080;-82
2022/07/17 07:10:29;;;;;;;;;;;;;;;20.20;43.74;101177.50;1493280;86;20603;-81
2022/07/17 07:12:57;;;;;;;;;;;;;;;20.17;43.02;101176.55;1490191;86;20395;-82
2022/07/17 07:15:24;;;;;;;;;;;;;;;20.14;42.87;101180.95;1477336;86;20882;-82
2022/07/17 07:17:52;;;;;;;;;;;;;;;20.25;42.12;101180.94;1488836;86;20287;-83
2022/07/17 07:20:18;;;;;;;;;;;;;;;20.21;40.17;101183.70;1498628;86;20316;-81
2022/07/17 07:22:45;;;;;;;;;;;;;;;20.17;40.59;101188.63;1490341;86;20377;-81
2022/07/17 07:25:11;;;;;;;;;;;;;;;20.20;40.50;101184.22;1480634;86;20302;-82
2022/07/17 07:27:43;;;;;;;;;;;;;;;20.27;41.80;101189.13;1501187;86;20409;-82
2022/07/17 07:30:09;;;;;;;;;;;;;;;20.09;41.83;101191.44;1506477;86;20302;-82
2022/07/17 07:32:38;;;;;;;;;;;;;;;20.29;42.12;101193.80;1492251;86;20377;-82
2022/07/17 07:35:05;;;;;;;;;;;;;;;20.48;42.82;101189.64;1502957;86;20387;-82
2022/07/17 07:37:31;;;;;;;;;;;;;;;20.45;41.22;101195.89;1501626;86;20786;-82
2022/07/17 07:39:57;;;;;;;;;;;;;;;20.48;41.14;101191.47;1481196;86;20287;-81
2022/07/17 07:42:23;;;;;;;;;;;;;;;20.65;41.23;101183.47;1497207;86;20295;-82
2022/07/17 07:44:49;;;;;;;;;;;;;;;20.68;39.61;101179.56;1502856;86;20362;-81
2022/07/17 07:47:15;;;;;;;;;;;;;;;20.74;40.67;101186.84;1502164;86;20519;-82
2022/07/17 07:49:41;;;;;;;;;;;;;;;20.88;39.83;101191.80;1493680;86;20280;-82
2022/07/17 07:52:07;;;;;;;;;;;;;;;21.02;39.22;101190.86;1490088;86;20331;-82
2022/07/17 07:54:45;;;;;;;;;;;;;;;21.24;38.25;101189.44;1485764;86;20402;-82
2022/07/17 07:57:11;;;;;;;;;;;;;;;21.15;37.01;101192.30;1488233;86;20370;-81
2022/07/17 07:59:38;;;;;;;;;;;;;;;21.22;37.45;101192.32;1490892;86;20302;-81
2022/07/17 08:02:04;;;;;;;;;;;;;;;21.32;37.75;101189.25;1495884;86;20390;-81
2022/07/17 08:04:31;;;;;;;;;;;;;;;21.39;38.33;101191.51;1502415;86;20332;-82
2022/07/17 08:06:57;;;;;;;;;;;;;;;21.65;37.84;101200.20;1498497;86;20436;-82
2022/07/17 08:09:23;;;;;;;;;;;;;;;21.69;37.04;101201.97;1502012;86;20280;-82
2022/07/17 08:11:49;;;;;;;;;;;;;;;21.66;36.31;101193.78;1487947;86;20302;-81
2022/07/17 08:14:15;;;;;;;;;;;;;;;21.68;36.35;101203.02;1483368;86;20288;-81
2022/07/17 08:16:43;;;;;;;;;;;;;;;21.82;36.49;101203.37;1493105;86;20310;-81
2022/07/17 08:19:11;;;;;;;;;;;;;;;21.65;35.72;101200.73;1494495;86;20266;-81
2022/07/17 08:21:38;;;;;;;;;;;;;;;21.81;36.42;101201.72;1496861;86;20280;-81
2022/07/17 08:24:05;;;;;;;;;;;;;;;22.07;36.32;101199.08;1498464;86;20295;-81
2022/07/17 08:26:32;;;;;;;;;;;;;;;22.05;35.42;101198.45;1495903;86;20369;-81
2022/07/17 08:28:58;;;;;;;;;;;;;;;22.10;34.55;101192.45;1485195;86;20281;-81
2022/07/17 08:31:25;;;;;;;;;;;;;;;22.25;35.34;101190.95;1493472;86;20353;-82
2022/07/17 08:33:57;;;;;;;;;;;;;;;22.42;35.02;101190.85;1486608;86;20294;-87
2022/07/17 08:36:23;;;;;;;;;;;;;;;22.47;34.43;101192.41;1480659;86;20434;-84
2022/07/17 08:38:49;;;;;;;;;;;;;;;22.48;34.34;101189.19;1495524;86;20279;-87
2022/07/17 08:41:16;;;;;;;;;;;;;;;22.58;35.05;101188.23;1502113;86;20392;-85
2022/07/17 08:43:43;;;;;;;;;;;;;;;22.74;35.61;101184.30;1545178;86;20296;-90
2022/07/17 08:46:12;;;;;;;;;;;;;;;22.73;33.42;101184.82;1589070;86;20221;-87
2022/07/17 08:48:46;;;;;;;;;;;;;;;22.67;33.67;101180.27;1425720;87;20243;-85
2022/07/17 08:51:12;;;;;;;;;;;;;;;22.53;34.26;101182.14;1580442;86;20228;-89
2022/07/17 08:53:40;;;;;;;;;;;;;;;22.72;35.00;101185.02;1586502;86;20319;-87
2022/07/17 08:56:06;;;;;;;;;;;;;;;22.86;34.03;101189.36;1591550;86;20244;-90
2022/07/17 08:58:32;;;;;;;;;;;;;;;23.03;33.89;101186.25;1520138;86;20362;-89
2022/07/17 09:00:59;;;;;;;;;;;;;;;23.28;33.95;101177.77;1499500;86;20897;-86
2022/07/17 09:03:25;;;;;;;;;;;;;;;23.45;34.00;101176.77;1494456;86;20287;-85
2022/07/17 09:05:51;;;;;;;;;;;;;;;23.39;32.50;101173.05;1498705;86;20421;-88
2022/07/17 09:08:20;;;;;;;;;;;;;;;23.58;33.47;101182.09;1495257;86;20428;-88
2022/07/17 09:10:49;;;;;;;;;;;;;;;23.65;33.14;101182.90;1492475;86;20295;-87
2022/07/17 09:13:18;;;;;;;;;;;;;;;23.73;32.21;101181.01;1504263;86;20294;-87
2022/07/17 09:15:46;;;;;;;;;;;;;;;23.60;32.23;101184.06;1564463;86;21076;-88
2022/07/17 09:18:14;;;;;;;;;;;;;;;23.39;32.77;101185.20;1574326;86;20236;-89
2022/07/17 09:20:52;;;;;;;;;;;;;;;23.51;32.44;101187.23;1570080;86;20288;-93
2022/07/17 09:23:19;;;;;;;;;;;;;;;23.62;32.45;101183.34;1495075;86;20346;-95
2022/07/17 09:25:54;;;;;;;;;;;;;;;23.69;31.99;101172.48;1506502;84;20377;-92
2022/07/17 09:28:22;;;;;;;;;;;;;;;23.63;33.00;101178.75;1501382;86;20273;-94
2022/07/17 09:30:56;;;;;;;;;;;;;;;23.82;32.15;101185.97;1487936;86;20852;-92
2022/07/17 09:33:27;;;;;;;;;;;;;;;23.26;32.09;101189.29;1490119;86;20340;-96
2022/07/17 09:35:55;;;;;;;;;;;;;;;23.38;32.74;101193.50;1502852;86;20302;-94
2022/07/17 09:41:12;;;;;;;;;;;;;;;23.88;32.80;101182.91;1432103;87;20343;-94
2022/07/17 09:43:47;;;;;;;;;;;;;;;24.09;31.45;101174.97;1428036;91;20320;-89
2022/07/17 09:46:16;;;;;;;;;;;;;;;24.43;32.40;101179.11;1430255;91;20403;-93
2022/07/17 09:48:47;;;;;;;;;;;;;;;24.09;31.26;101177.67;1428773;91;20335;-90
2022/07/17 09:51:16;;;;;;;;;;;;;;;24.10;31.20;101172.03;1428366;91;20454;-86
2022/07/17 09:53:44;;;;;;;;;;;;;;;24.22;31.73;101179.44;1430773;91;20902;-95
2022/07/17 09:56:11;;;;;;;;;;;;;;;24.10;31.60;101176.09;1427158;91;20300;-89
2022/07/17 09:58:39;;;;;;;;;;;;;;;23.76;31.51;101188.16;1417470;91;20321;-86
2022/07/17 10:01:05;;;;;;;;;;;;;;;24.04;32.03;101180.20;1421989;90;20375;-87
2022/07/17 10:03:32;;;;;;;;;;;;;;;24.43;32.13;101174.23;1423712;91;21543;-87
2022/07/17 10:05:59;;;;;;;;;;;;;;;24.87;31.58;101176.41;1395216;91;20962;-87
2022/07/17 10:08:34;;;;;;;;;;;;;;;25.05;29.03;101170.99;1422074;91;20335;-88
2022/07/17 10:11:00;;;;;;;;;;;;;;;25.10;30.14;101175.21;1420103;91;20491;-89
2022/07/17 10:13:26;;;;;;;;;;;;;;;24.66;31.11;101179.84;1408343;92;20987;-87
2022/07/17 10:15:52;;;;;;;;;;;;;;;24.19;31.01;101178.00;1421454;91;20395;-88
2022/07/17 10:18:41;;;;;;;;;;;;;;;24.18;31.29;101179.06;1423588;91;20801;-87
2022/07/17 10:21:14;;;;;;;;;;;;;;;24.65;30.84;101176.81;1394600;93;20288;-86
2022/07/17 10:23:43;;;;;;;;;;;;;;;24.41;30.06;101177.64;1353341;94;20468;-87
2022/07/17 10:26:10;;;;;;;;;;;;;;;24.50;29.97;101174.98;1383624;94;20300;-88
2022/07/17 10:28:41;;;;;;;;;;;;;;;24.48;30.49;101175.72;1385550;94;20447;-89
2022/07/17 10:31:07;;;;;;;;;;;;;;;24.44;29.75;101174.52;1384542;94;20305;-89
2022/07/17 10:33:33;;;;;;;;;;;;;;;24.67;30.68;101167.13;1384186;94;20320;-90
2022/07/17 10:36:04;;;;;;;;;;;;;;;24.86;29.51;101168.82;1387976;94;20291;-90
2022/07/17 10:38:34;;;;;;;;;;;;;;;25.21;29.57;101170.43;1384131;93;20397;-90
2022/07/17 10:41:01;;;;;;;;;;;;;;;25.44;27.57;101162.13;1378225;94;20404;-89
2022/07/17 10:43:27;;;;;;;;;;;;;;;25.06;28.74;101165.05;1496059;91;20245;-89
2022/07/17 10:45:53;;;;;;;;;;;;;;;25.08;29.82;101165.13;1465520;91;20334;-89
2022/07/17 10:48:22;;;;;;;;;;;;;;;25.03;29.10;101162.29;1409886;91;20329;-90
2022/07/17 10:50:55;;;;;;;;;;;;;;;24.97;29.66;101157.75;1418979;91;20375;-91
2022/07/17 10:53:27;;;;;;;;;;;;;;;24.45;29.73;101155.87;1503803;90;20255;-89
2022/07/17 10:56:05;;;;;;;;;;;;;;;24.02;30.31;101152.02;1530473;90;20288;-93
2022/07/17 10:58:40;;;;;;;;;;;;;;;24.20;31.48;101152.63;1510164;90;20986;-89
2022/07/17 11:01:17;;;;;;;;;;;;;;;24.61;31.04;101156.67;1507228;91;20387;-89
2022/07/17 11:03:46;;;;;;;;;;;;;;;24.97;29.02;101160.45;1501651;91;20314;-90
2022/07/17 11:06:18;;;;;;;;;;;;;;;25.33;27.17;101154.23;1360412;91;20254;-92
2022/07/17 11:08:52;;;;;;;;;;;;;;;25.87;28.53;101155.73;1424519;90;20337;-90
2022/07/17 11:11:39;;;;;;;;;;;;;;;25.77;28.29;101156.23;1507265;91;20262;-90
2022/07/17 11:14:13;;;;;;;;;;;;;;;26.09;27.36;101150.58;1453370;91;20403;-91
2022/07/17 11:16:45;;;;;;;;;;;;;;;26.47;27.56;101161.02;1427472;91;20318;-90
2022/07/17 11:19:12;;;;;;;;;;;;;;;26.05;27.33;101170.56;1395107;93;20412;-90
2022/07/17 11:21:48;;;;;;;;;;;;;;;25.62;28.11;101162.09;1371222;94;20355;-91
2022/07/17 11:24:15;;;;;;;;;;;;;;;25.81;28.75;101163.41;1424240;91;20280;-89
2022/07/17 11:26:44;;;;;;;;;;;;;;;25.84;29.44;101164.33;1428170;91;20309;-89
2022/07/17 11:29:11;;;;;;;;;;;;;;;26.10;28.61;101162.56;1424938;91;20377;-90
2022/07/17 11:31:37;;;;;;;;;;;;;;;25.51;28.47;101167.45;1421089;91;20803;-91
2022/07/17 11:34:08;;;;;;;;;;;;;;;25.70;29.21;101171.79;1425124;91;20423;-90
2022/07/17 11:36:37;;;;;;;;;;;;;;;25.86;27.79;101170.33;1426735;91;20295;-91
2022/07/17 11:39:10;;;;;;;;;;;;;;;26.23;28.17;101163.41;1430789;91;20325;-91
2022/07/17 11:41:41;;;;;;;;;;;;;;;26.44;27.79;101162.86;1414855;91;20429;-90
2022/07/17 11:44:16;;;;;;;;;;;;;;;26.51;27.52;101154.08;1417083;91;20273;-89
2022/07/17 11:46:45;;;;;;;;;;;;;;;26.80;27.33;101152.83;1405953;92;20805;-89
2022/07/17 11:49:11;;;;;;;;;;;;;;;26.38;26.70;101149.37;1425723;91;20321;-91
2022/07/17 11:51:43;;;;;;;;;;;;;;;26.08;26.93;101156.54;1426489;91;20365;-91
2022/07/17 11:54:16;;;;;;;;;;;;;;;25.96;25.77;101139.42;1426297;91;20310;-90
2022/07/17 11:56:45;;;;;;;;;;;;;;;25.95;25.93;101140.49;1422291;90;20333;-91
2022/07/17 11:59:10;;;;;;;;;;;;;;;26.45;27.13;101141.97;1425921;91;20856;-89
2022/07/17 12:01:43;;;;;;;;;;;;;;;26.60;25.98;101139.63;1427971;91;20370;-91
2022/07/17 12:04:12;;;;;;;;;;;;;;;26.59;25.91;101144.77;1422467;91;20919;-90
2022/07/17 12:06:46;;;;;;;;;;;;;;;25.85;25.64;101142.92;1419558;91;20506;-91
2022/07/17 12:09:12;;;;;;;;;;;;;;;25.81;26.18;101139.00;1388692;91;20277;-89
2022/07/17 12:11:50;;;;;;;;;;;;;;;25.81;26.46;101136.30;1357054;91;20359;-89
2022/07/17 12:14:16;;;;;;;;;;;;;;;25.88;26.38;101134.33;1406842;91;20307;-89
2022/07/17 12:16:42;;;;;;;;;;;;;;;26.14;26.87;101125.48;1381094;91;20351;-92
2022/07/17 12:19:18;;;;;;;;;;;;;;;26.42;26.03;101118.83;1427967;91;20402;-89
2022/07/17 12:21:51;;;;;;;;;;;;;;;26.80;26.21;101128.39;1426875;91;20314;-91
2022/07/17 12:24:22;;;;;;;;;;;;;;;27.27;25.88;101125.58;1431474;91;20349;-91
2022/07/17 12:26:49;;;;;;;;;;;;;;;26.96;24.73;101119.52;1429744;90;20424;-89
2022/07/17 12:29:15;;;;;;;;;;;;;;;26.89;25.40;101126.95;1428387;91;21234;-91
2022/07/17 12:31:42;;;;;;;;;;;;;;;26.94;24.95;101126.25;1431406;91;20313;-90
2022/07/17 12:34:08;;;;;;;;;;;;;;;26.98;24.82;101126.88;1427345;91;20425;-91
2022/07/17 12:36:34;;;;;;;;;;;;;;;27.26;25.18;101119.05;1431919;91;20335;-91
2022/07/17 12:39:00;;;;;;;;;;;;;;;27.50;23.41;101117.87;1410856;91;20402;-90
2022/07/17 12:41:26;;;;;;;;;;;;;;;27.72;23.83;101113.11;1426111;91;20329;-91